createdAt,value
2018-07-01T00:00:49.441Z,0
2018-07-01T00:01:49.516Z,0
2018-07-01T00:02:49.515Z,0
2018-07-01T00:03:49.454Z,0
2018-07-01T00:04:49.417Z,0
2018-07-01T00:05:49.503Z,0
2018-07-01T00:06:49.466Z,0
2018-07-01T00:07:49.489Z,0
2018-07-01T00:08:49.516Z,0
2018-07-01T00:09:49.516Z,0
2018-07-01T00:10:49.580Z,0
2018-07-01T00:11:49.508Z,0
2018-07-01T00:12:49.464Z,0
2018-07-01T00:13:49.507Z,0
2018-07-01T00:14:49.448Z,0
2018-07-01T00:15:49.458Z,0
2018-07-01T00:16:49.466Z,0
2018-07-01T00:17:49.491Z,0
2018-07-01T00:18:49.518Z,0
2018-07-01T00:19:49.491Z,0
2018-07-01T00:20:49.397Z,0
2018-07-01T00:21:49.467Z,0
2018-07-01T00:22:49.527Z,0
2018-07-01T00:23:49.477Z,0
2018-07-01T00:24:49.458Z,0
2018-07-01T00:25:49.419Z,0
2018-07-01T00:26:49.456Z,0
2018-07-01T00:27:49.546Z,0
2018-07-01T00:28:49.536Z,0
2018-07-01T00:29:49.437Z,0
2018-07-01T00:30:49.439Z,0
2018-07-01T00:31:49.469Z,0
2018-07-01T00:32:49.464Z,0
2018-07-01T00:33:49.499Z,0
2018-07-01T00:34:49.503Z,0
2018-07-01T00:35:49.505Z,0
2018-07-01T00:36:49.507Z,0
2018-07-01T00:37:49.508Z,0
2018-07-01T00:38:49.438Z,0
2018-07-01T00:39:49.509Z,0
2018-07-01T00:40:49.511Z,0
2018-07-01T00:41:49.511Z,0
2018-07-01T00:42:49.439Z,0
2018-07-01T00:43:49.441Z,0
2018-07-01T00:44:49.434Z,0
2018-07-01T00:45:49.571Z,0
2018-07-01T00:46:49.480Z,0
2018-07-01T00:47:49.417Z,0
2018-07-01T00:48:49.455Z,0
2018-07-01T00:49:49.438Z,0
2018-07-01T00:50:49.456Z,0
2018-07-01T00:51:49.547Z,0
2018-07-01T00:52:49.484Z,0
2018-07-01T00:53:49.442Z,0
2018-07-01T00:54:49.517Z,0
2018-07-01T00:55:49.519Z,0
2018-07-01T00:56:49.521Z,0
2018-07-01T00:57:49.468Z,0
2018-07-01T00:58:49.452Z,0
2018-07-01T00:59:49.481Z,0
2018-07-01T01:00:49.523Z,0
2018-07-01T01:01:49.454Z,0
2018-07-01T01:02:49.512Z,0
2018-07-01T01:03:49.454Z,0
2018-07-01T01:04:49.515Z,0
2018-07-01T01:05:49.493Z,0
2018-07-01T01:06:49.559Z,0
2018-07-01T01:07:49.535Z,0
2018-07-01T01:08:49.553Z,0
2018-07-01T01:09:49.562Z,0
2018-07-01T01:10:49.526Z,0
2018-07-01T01:11:49.487Z,0
2018-07-01T01:12:49.499Z,0
2018-07-01T01:13:49.445Z,0
2018-07-01T01:14:49.488Z,0
2018-07-01T01:15:49.556Z,0
2018-07-01T01:16:49.564Z,0
2018-07-01T01:17:49.499Z,0
2018-07-01T01:18:49.571Z,0
2018-07-01T01:19:49.562Z,0
2018-07-01T01:20:49.533Z,0
2018-07-01T01:21:49.508Z,0
2018-07-01T01:22:49.496Z,0
2018-07-01T01:23:49.535Z,0
2018-07-01T01:24:49.516Z,0
2018-07-01T01:25:49.562Z,0
2018-07-01T01:26:49.440Z,0
2018-07-01T01:27:49.492Z,0
2018-07-01T01:28:49.478Z,0
2018-07-01T01:29:49.540Z,0
2018-07-01T01:30:49.506Z,0
2018-07-01T01:31:49.505Z,0
2018-07-01T01:32:49.463Z,0
2018-07-01T01:33:49.522Z,0
2018-07-01T01:34:49.447Z,0
2018-07-01T01:35:49.485Z,0
2018-07-01T01:36:49.491Z,0
2018-07-01T01:37:49.463Z,0
2018-07-01T01:38:49.471Z,0
2018-07-01T01:39:49.537Z,0
2018-07-01T01:40:49.538Z,0
2018-07-01T01:41:49.467Z,0
2018-07-01T01:42:49.538Z,0
2018-07-01T01:43:49.541Z,0
2018-07-01T01:44:49.468Z,0
2018-07-01T01:45:49.515Z,0
2018-07-01T01:46:49.515Z,0
2018-07-01T01:47:49.519Z,0
2018-07-01T01:48:49.475Z,0
2018-07-01T01:49:49.480Z,0
2018-07-01T01:50:49.559Z,0
2018-07-01T01:51:49.558Z,0
2018-07-01T01:52:49.528Z,0
2018-07-01T01:53:49.516Z,0
2018-07-01T01:54:49.561Z,0
2018-07-01T01:55:49.491Z,0
2018-07-01T01:56:49.578Z,0
2018-07-01T01:57:49.488Z,0
2018-07-01T01:58:49.491Z,0
2018-07-01T01:59:49.562Z,0
2018-07-01T02:00:49.449Z,0
2018-07-01T02:01:49.568Z,0
2018-07-01T02:02:49.492Z,0
2018-07-01T02:03:49.562Z,0
2018-07-01T02:04:49.565Z,0
2018-07-01T02:05:49.554Z,0
2018-07-01T02:06:49.491Z,0
2018-07-01T02:07:49.624Z,0
2018-07-01T02:08:49.498Z,0
2018-07-01T02:09:49.460Z,0
2018-07-01T02:10:49.551Z,0
2018-07-01T02:11:49.495Z,0
2018-07-01T02:12:49.546Z,0
2018-07-01T02:13:49.503Z,0
2018-07-01T02:14:49.548Z,0
2018-07-01T02:15:49.564Z,0
2018-07-01T02:16:49.591Z,0
2018-07-01T02:17:49.565Z,0
2018-07-01T02:18:49.565Z,0
2018-07-01T02:19:49.561Z,0
2018-07-01T02:20:49.576Z,0
2018-07-01T02:21:49.567Z,0
2018-07-01T02:22:49.495Z,0
2018-07-01T02:23:49.492Z,0
2018-07-01T02:24:49.479Z,0
2018-07-01T02:25:49.498Z,0
2018-07-01T02:26:49.598Z,0
2018-07-01T02:27:49.549Z,0
2018-07-01T02:28:49.548Z,0
2018-07-01T02:29:49.601Z,0
2018-07-01T02:30:49.656Z,0
2018-07-01T02:31:49.503Z,0
2018-07-01T02:32:49.625Z,0
2018-07-01T02:33:49.504Z,0
2018-07-01T02:34:49.561Z,0
2018-07-01T02:35:49.626Z,0
2018-07-01T02:36:49.611Z,0
2018-07-01T02:37:49.553Z,0
2018-07-01T02:38:49.584Z,0
2018-07-01T02:39:49.505Z,0
2018-07-01T02:40:49.588Z,0
2018-07-01T02:41:49.524Z,0
2018-07-01T02:42:49.624Z,0
2018-07-01T02:43:49.619Z,0
2018-07-01T02:44:49.524Z,0
2018-07-01T02:45:49.607Z,0
2018-07-01T02:46:49.497Z,0
2018-07-01T02:47:49.609Z,0
2018-07-01T02:48:49.558Z,0
2018-07-01T02:49:49.621Z,0
2018-07-01T02:50:49.592Z,0
2018-07-01T02:51:49.531Z,0
2018-07-01T02:52:49.668Z,0
2018-07-01T02:53:49.628Z,0
2018-07-01T02:54:49.597Z,0
2018-07-01T02:55:49.635Z,0
2018-07-01T02:56:49.539Z,0
2018-07-01T02:57:49.561Z,0
2018-07-01T02:58:49.502Z,0
2018-07-01T02:59:49.588Z,0
2018-07-01T03:00:49.525Z,0
2018-07-01T03:01:49.601Z,0
2018-07-01T03:02:49.508Z,0
2018-07-01T03:03:49.636Z,0
2018-07-01T03:04:49.620Z,0
2018-07-01T03:05:49.596Z,0
2018-07-01T03:06:49.522Z,0
2018-07-01T03:07:49.569Z,0
2018-07-01T03:08:49.599Z,0
2018-07-01T03:09:49.607Z,0
2018-07-01T03:10:49.540Z,0
2018-07-01T03:11:49.607Z,0
2018-07-01T03:12:49.527Z,0
2018-07-01T03:13:49.533Z,0
2018-07-01T03:14:49.603Z,0
2018-07-01T03:15:49.609Z,0
2018-07-01T03:16:49.573Z,0
2018-07-01T03:17:49.550Z,0
2018-07-01T03:18:49.653Z,0
2018-07-01T03:19:49.534Z,0
2018-07-01T03:20:49.531Z,0
2018-07-01T03:21:49.656Z,0
2018-07-01T03:22:49.644Z,0
2018-07-01T03:23:49.614Z,0
2018-07-01T03:24:49.575Z,0
2018-07-01T03:25:49.524Z,0
2018-07-01T03:26:49.610Z,0
2018-07-01T03:27:49.691Z,0
2018-07-01T03:28:49.538Z,0
2018-07-01T03:29:49.608Z,0
2018-07-01T03:30:49.616Z,0
2018-07-01T03:31:49.636Z,0
2018-07-01T03:32:49.614Z,0
2018-07-01T03:33:49.609Z,0
2018-07-01T03:34:49.612Z,0
2018-07-01T03:35:49.627Z,0
2018-07-01T03:36:49.623Z,0
2018-07-01T03:37:49.590Z,0
2018-07-01T03:38:49.651Z,0
2018-07-01T03:39:49.528Z,0
2018-07-01T03:40:49.669Z,0
2018-07-01T03:41:49.663Z,0
2018-07-01T03:42:49.587Z,0
2018-07-01T03:43:49.566Z,0
2018-07-01T03:44:49.551Z,0
2018-07-01T03:45:49.630Z,0
2018-07-01T03:46:49.564Z,0
2018-07-01T03:47:49.631Z,0
2018-07-01T03:48:49.565Z,0
2018-07-01T03:49:49.633Z,0
2018-07-01T03:50:49.563Z,0
2018-07-01T03:51:49.632Z,0
2018-07-01T03:52:49.566Z,0
2018-07-01T03:53:49.572Z,0
2018-07-01T03:54:49.635Z,0
2018-07-01T03:55:49.566Z,0
2018-07-01T03:56:49.636Z,0
2018-07-01T03:57:49.698Z,0
2018-07-01T03:58:49.572Z,0
2018-07-01T03:59:49.638Z,0
2018-07-01T04:00:49.570Z,0
2018-07-01T04:01:49.651Z,0
2018-07-01T04:02:49.637Z,0
2018-07-01T04:03:49.649Z,0
2018-07-01T04:04:49.639Z,0
2018-07-01T04:05:49.598Z,0
2018-07-01T04:06:49.577Z,0
2018-07-01T04:07:49.538Z,0
2018-07-01T04:08:49.507Z,0
2018-07-01T04:09:49.518Z,0
2018-07-01T04:10:49.568Z,0
2018-07-01T04:11:49.535Z,0
2018-07-01T04:12:49.571Z,0
2018-07-01T04:13:49.515Z,0
2018-07-01T04:14:49.631Z,0
2018-07-01T04:15:49.599Z,14
2018-07-01T04:16:49.638Z,15
2018-07-01T04:17:49.641Z,15
2018-07-01T04:18:49.553Z,16
2018-07-01T04:19:49.558Z,14
2018-07-01T04:20:49.632Z,15
2018-07-01T04:21:49.559Z,16
2018-07-01T04:22:49.560Z,16
2018-07-01T04:23:49.643Z,17
2018-07-01T04:24:49.622Z,17
2018-07-01T04:25:49.590Z,18
2018-07-01T04:26:49.677Z,18
2018-07-01T04:27:49.692Z,15
2018-07-01T04:28:49.629Z,18
2018-07-01T04:29:49.620Z,18
2018-07-01T04:30:49.658Z,19
2018-07-01T04:31:49.696Z,19
2018-07-01T04:32:49.686Z,20
2018-07-01T04:33:49.661Z,19
2018-07-01T04:34:49.620Z,20
2018-07-01T04:35:49.603Z,20
2018-07-01T04:36:49.520Z,20
2018-07-01T04:37:49.559Z,21
2018-07-01T04:38:49.609Z,21
2018-07-01T04:39:49.515Z,21
2018-07-01T04:40:49.612Z,21
2018-07-01T04:41:49.561Z,21
2018-07-01T04:42:49.519Z,21
2018-07-01T04:43:49.520Z,21
2018-07-01T04:44:49.582Z,21
2018-07-01T04:45:49.655Z,21
2018-07-01T04:46:49.617Z,22
2018-07-01T04:47:49.595Z,22
2018-07-01T04:48:49.598Z,22
2018-07-01T04:49:49.595Z,23
2018-07-01T04:50:49.597Z,21
2018-07-01T04:51:49.652Z,22
2018-07-01T04:52:49.614Z,23
2018-07-01T04:53:49.621Z,23
2018-07-01T04:54:49.622Z,24
2018-07-01T04:55:49.538Z,23
2018-07-01T04:56:49.468Z,23
2018-07-01T04:57:49.547Z,22
2018-07-01T04:58:49.570Z,22
2018-07-01T04:59:49.509Z,24
2018-07-01T05:00:49.521Z,24
2018-07-01T05:01:49.519Z,23
2018-07-01T05:02:49.477Z,24
2018-07-01T05:03:49.569Z,25
2018-07-01T05:04:49.478Z,25
2018-07-01T05:05:49.687Z,25
2018-07-01T05:06:49.655Z,24
2018-07-01T05:07:49.720Z,26
2018-07-01T05:08:49.585Z,25
2018-07-01T05:09:49.684Z,24
2018-07-01T05:10:49.710Z,26
2018-07-01T05:11:49.651Z,26
2018-07-01T05:12:49.633Z,26
2018-07-01T05:13:49.669Z,27
2018-07-01T05:14:49.725Z,26
2018-07-01T05:15:49.699Z,26
2018-07-01T05:16:49.594Z,27
2018-07-01T05:17:49.703Z,27
2018-07-01T05:18:49.665Z,27
2018-07-01T05:19:49.710Z,27
2018-07-01T05:20:49.662Z,26
2018-07-01T05:21:49.671Z,27
2018-07-01T05:22:49.644Z,28
2018-07-01T05:23:49.660Z,28
2018-07-01T05:24:49.674Z,28
2018-07-01T05:25:49.717Z,28
2018-07-01T05:26:49.669Z,28
2018-07-01T05:27:49.731Z,27
2018-07-01T05:28:49.654Z,27
2018-07-01T05:29:49.703Z,28
2018-07-01T05:30:49.730Z,28
2018-07-01T05:31:49.716Z,28
2018-07-01T05:32:49.658Z,27
2018-07-01T05:33:49.729Z,27
2018-07-01T05:34:49.635Z,28
2018-07-01T05:35:49.699Z,28
2018-07-01T05:36:49.716Z,29
2018-07-01T05:37:49.604Z,29
2018-07-01T05:38:49.671Z,27
2018-07-01T05:39:49.680Z,27
2018-07-01T05:40:49.739Z,28
2018-07-01T05:41:49.606Z,29
2018-07-01T05:42:49.730Z,29
2018-07-01T05:43:49.617Z,29
2018-07-01T05:44:49.660Z,28
2018-07-01T05:45:49.708Z,28
2018-07-01T05:46:49.632Z,30
2018-07-01T05:47:49.682Z,30
2018-07-01T05:48:49.772Z,30
2018-07-01T05:49:49.669Z,31
2018-07-01T05:50:49.730Z,31
2018-07-01T05:51:49.677Z,30
2018-07-01T05:52:49.742Z,30
2018-07-01T05:53:49.710Z,32
2018-07-01T05:54:49.714Z,33
2018-07-01T05:55:49.756Z,32
2018-07-01T05:56:49.686Z,33
2018-07-01T05:57:49.636Z,33
2018-07-01T05:58:49.734Z,33
2018-07-01T05:59:49.690Z,33
2018-07-01T06:00:49.739Z,34
2018-07-01T06:01:49.692Z,33
2018-07-01T06:02:49.696Z,34
2018-07-01T06:03:49.678Z,32
2018-07-01T06:04:49.747Z,34
2018-07-01T06:05:49.660Z,35
2018-07-01T06:06:49.660Z,35
2018-07-01T06:07:49.725Z,35
2018-07-01T06:08:49.686Z,35
2018-07-01T06:09:49.733Z,35
2018-07-01T06:10:49.657Z,36
2018-07-01T06:11:49.727Z,36
2018-07-01T06:12:49.657Z,36
2018-07-01T06:13:49.660Z,37
2018-07-01T06:14:49.662Z,37
2018-07-01T06:15:49.715Z,37
2018-07-01T06:16:49.769Z,38
2018-07-01T06:17:49.728Z,38
2018-07-01T06:18:49.666Z,38
2018-07-01T06:19:49.777Z,39
2018-07-01T06:20:49.637Z,39
2018-07-01T06:21:49.774Z,39
2018-07-01T06:22:49.649Z,38
2018-07-01T06:23:49.701Z,39
2018-07-01T06:24:49.745Z,40
2018-07-01T06:25:49.640Z,26
2018-07-01T06:26:49.725Z,187
2018-07-01T06:27:49.639Z,189
2018-07-01T06:28:49.603Z,195
2018-07-01T06:29:49.730Z,201
2018-07-01T06:30:49.768Z,203
2018-07-01T06:31:49.727Z,242
2018-07-01T06:32:49.736Z,243
2018-07-01T06:33:49.627Z,245
2018-07-01T06:34:49.738Z,236
2018-07-01T06:35:49.780Z,243
2018-07-01T06:36:49.650Z,251
2018-07-01T06:37:49.717Z,253
2018-07-01T06:38:49.772Z,293
2018-07-01T06:39:49.773Z,298
2018-07-01T06:40:49.717Z,333
2018-07-01T06:41:49.812Z,340
2018-07-01T06:42:49.765Z,346
2018-07-01T06:43:49.725Z,347
2018-07-01T06:44:49.731Z,350
2018-07-01T06:45:49.653Z,352
2018-07-01T06:46:49.654Z,354
2018-07-01T06:47:49.749Z,357
2018-07-01T06:48:49.788Z,403
2018-07-01T06:49:49.749Z,405
2018-07-01T06:50:49.749Z,408
2018-07-01T06:51:49.677Z,409
2018-07-01T06:52:49.779Z,406
2018-07-01T06:53:49.785Z,408
2018-07-01T06:54:49.783Z,417
2018-07-01T06:55:49.696Z,430
2018-07-01T06:56:49.757Z,466
2018-07-01T06:57:49.761Z,507
2018-07-01T06:58:49.756Z,512
2018-07-01T06:59:49.771Z,515
2018-07-01T07:00:49.693Z,527
2018-07-01T07:01:49.696Z,529
2018-07-01T07:02:49.760Z,531
2018-07-01T07:03:49.738Z,583
2018-07-01T07:04:49.761Z,585
2018-07-01T07:05:49.734Z,587
2018-07-01T07:06:49.792Z,592
2018-07-01T07:07:49.917Z,594
2018-07-01T07:08:49.762Z,598
2018-07-01T07:09:49.787Z,599
2018-07-01T07:10:49.763Z,603
2018-07-01T07:11:49.784Z,606
2018-07-01T07:12:49.798Z,659
2018-07-01T07:13:49.769Z,663
2018-07-01T07:14:49.742Z,666
2018-07-01T07:15:49.702Z,670
2018-07-01T07:16:49.771Z,666
2018-07-01T07:17:49.771Z,669
2018-07-01T07:18:49.706Z,676
2018-07-01T07:19:49.701Z,680
2018-07-01T07:20:49.703Z,681
2018-07-01T07:21:49.806Z,683
2018-07-01T07:22:49.773Z,687
2018-07-01T07:23:49.775Z,687
2018-07-01T07:24:49.704Z,743
2018-07-01T07:25:49.799Z,746
2018-07-01T07:26:49.732Z,748
2018-07-01T07:27:49.809Z,753
2018-07-01T07:28:49.700Z,755
2018-07-01T07:29:49.746Z,752
2018-07-01T07:30:49.679Z,762
2018-07-01T07:31:49.733Z,765
2018-07-01T07:32:49.778Z,769
2018-07-01T07:33:49.719Z,772
2018-07-01T07:34:49.782Z,773
2018-07-01T07:35:49.798Z,778
2018-07-01T07:36:49.749Z,782
2018-07-01T07:37:49.805Z,783
2018-07-01T07:38:49.748Z,786
2018-07-01T07:39:49.804Z,789
2018-07-01T07:40:49.775Z,790
2018-07-01T07:41:49.788Z,796
2018-07-01T07:42:49.757Z,802
2018-07-01T07:43:49.826Z,806
2018-07-01T07:44:49.744Z,808
2018-07-01T07:45:49.825Z,806
2018-07-01T07:46:49.798Z,813
2018-07-01T07:47:49.767Z,814
2018-07-01T07:48:49.785Z,818
2018-07-01T07:49:49.796Z,822
2018-07-01T07:50:49.761Z,825
2018-07-01T07:51:49.764Z,828
2018-07-01T07:52:49.810Z,827
2018-07-01T07:53:49.822Z,828
2018-07-01T07:54:49.812Z,836
2018-07-01T07:55:49.797Z,837
2018-07-01T07:56:49.738Z,843
2018-07-01T07:57:49.729Z,847
2018-07-01T07:58:49.797Z,851
2018-07-01T07:59:49.804Z,851
2018-07-01T08:00:49.735Z,854
2018-07-01T08:01:49.731Z,858
2018-07-01T08:02:49.798Z,859
2018-07-01T08:03:49.730Z,862
2018-07-01T08:04:49.833Z,864
2018-07-01T08:05:49.733Z,870
2018-07-01T08:06:49.738Z,874
2018-07-01T08:07:49.846Z,876
2018-07-01T08:08:49.829Z,882
2018-07-01T08:09:49.827Z,884
2018-07-01T08:10:49.759Z,884
2018-07-01T08:11:49.777Z,887
2018-07-01T08:12:49.851Z,888
2018-07-01T08:13:49.811Z,893
2018-07-01T08:14:49.811Z,896
2018-07-01T08:15:49.839Z,888
2018-07-01T08:16:49.730Z,897
2018-07-01T08:17:49.716Z,901
2018-07-01T08:18:49.833Z,904
2018-07-01T08:19:49.826Z,905
2018-07-01T08:20:49.839Z,910
2018-07-01T08:21:49.894Z,915
2018-07-01T08:22:49.751Z,919
2018-07-01T08:23:49.829Z,917
2018-07-01T08:24:49.795Z,921
2018-07-01T08:25:49.788Z,925
2018-07-01T08:26:49.837Z,926
2018-07-01T08:27:49.776Z,926
2018-07-01T08:28:49.778Z,928
2018-07-01T08:29:49.846Z,928
2018-07-01T08:30:49.791Z,927
2018-07-01T08:31:49.794Z,931
2018-07-01T08:32:49.815Z,932
2018-07-01T08:33:49.854Z,935
2018-07-01T08:34:49.849Z,939
2018-07-01T08:35:49.843Z,939
2018-07-01T08:36:49.743Z,945
2018-07-01T08:37:49.760Z,947
2018-07-01T08:38:49.829Z,951
2018-07-01T08:39:49.861Z,957
2018-07-01T08:40:49.750Z,957
2018-07-01T08:41:49.829Z,957
2018-07-01T08:42:49.766Z,953
2018-07-01T08:43:49.781Z,958
2018-07-01T08:44:49.862Z,961
2018-07-01T08:45:49.786Z,967
2018-07-01T08:46:49.764Z,970
2018-07-01T08:47:49.831Z,972
2018-07-01T08:48:49.811Z,968
2018-07-01T08:49:49.827Z,971
2018-07-01T08:50:49.769Z,976
2018-07-01T08:51:49.836Z,978
2018-07-01T08:52:49.861Z,979
2018-07-01T08:53:49.768Z,976
2018-07-01T08:54:49.835Z,977
2018-07-01T08:55:49.833Z,976
2018-07-01T08:56:49.855Z,984
2018-07-01T08:57:49.863Z,980
2018-07-01T08:58:49.803Z,985
2018-07-01T08:59:49.870Z,991
2018-07-01T09:00:49.801Z,986
2018-07-01T09:01:49.815Z,987
2018-07-01T09:02:49.793Z,993
2018-07-01T09:03:49.857Z,993
2018-07-01T09:04:49.840Z,998
2018-07-01T09:05:49.880Z,1002
2018-07-01T09:06:49.876Z,1000
2018-07-01T09:07:49.781Z,1002
2018-07-01T09:08:49.870Z,1004
2018-07-01T09:09:49.876Z,1006
2018-07-01T09:10:49.843Z,1007
2018-07-01T09:11:49.868Z,1013
2018-07-01T09:12:49.902Z,1015
2018-07-01T09:13:49.807Z,1014
2018-07-01T09:14:49.769Z,1016
2018-07-01T09:15:49.885Z,1024
2018-07-01T09:16:49.805Z,1022
2018-07-01T09:17:49.851Z,1028
2018-07-01T09:18:49.832Z,1026
2018-07-01T09:19:49.862Z,1037
2018-07-01T09:20:49.782Z,1039
2018-07-01T09:21:49.856Z,1040
2018-07-01T09:22:49.784Z,1041
2018-07-01T09:23:49.789Z,1040
2018-07-01T09:24:49.855Z,1040
2018-07-01T09:25:49.792Z,1041
2018-07-01T09:26:49.861Z,1041
2018-07-01T09:27:49.803Z,1045
2018-07-01T09:28:49.825Z,1045
2018-07-01T09:29:49.859Z,1044
2018-07-01T09:30:49.952Z,1040
2018-07-01T09:31:49.790Z,1036
2018-07-01T09:32:49.791Z,1039
2018-07-01T09:33:49.800Z,1025
2018-07-01T09:34:49.799Z,1045
2018-07-01T09:35:49.864Z,1053
2018-07-01T09:36:49.837Z,1056
2018-07-01T09:37:49.849Z,1054
2018-07-01T09:38:49.843Z,1052
2018-07-01T09:39:49.820Z,1059
2018-07-01T09:40:49.756Z,1059
2018-07-01T09:41:49.732Z,1056
2018-07-01T09:42:49.850Z,1055
2018-07-01T09:43:49.758Z,1056
2018-07-01T09:44:49.760Z,1057
2018-07-01T09:45:49.831Z,1063
2018-07-01T09:46:49.803Z,1066
2018-07-01T09:47:49.870Z,1069
2018-07-01T09:48:49.871Z,1072
2018-07-01T09:49:49.910Z,1075
2018-07-01T09:50:49.805Z,1073
2018-07-01T09:51:49.875Z,1076
2018-07-01T09:52:49.806Z,1076
2018-07-01T09:53:49.873Z,1076
2018-07-01T09:54:49.879Z,1077
2018-07-01T09:55:49.878Z,1076
2018-07-01T09:56:49.812Z,1074
2018-07-01T09:57:49.818Z,1080
2018-07-01T09:58:49.896Z,1080
2018-07-01T09:59:49.846Z,1085
2018-07-01T10:00:49.884Z,1087
2018-07-01T10:01:49.911Z,1085
2018-07-01T10:02:49.781Z,1078
2018-07-01T10:03:49.898Z,1079
2018-07-01T10:04:49.926Z,1084
2018-07-01T10:05:49.851Z,1087
2018-07-01T10:06:49.881Z,1087
2018-07-01T10:07:49.914Z,1080
2018-07-01T10:08:49.914Z,1075
2018-07-01T10:09:49.922Z,1083
2018-07-01T10:10:49.888Z,1090
2018-07-01T10:11:49.868Z,1097
2018-07-01T10:12:49.886Z,1100
2018-07-01T10:13:49.796Z,1099
2018-07-01T10:14:49.869Z,1098
2018-07-01T10:15:49.925Z,1097
2018-07-01T10:16:49.916Z,1096
2018-07-01T10:17:49.917Z,1098
2018-07-01T10:18:49.933Z,1100
2018-07-01T10:19:49.876Z,1101
2018-07-01T10:20:49.928Z,1099
2018-07-01T10:21:49.892Z,1096
2018-07-01T10:22:49.894Z,1099
2018-07-01T10:23:49.919Z,1101
2018-07-01T10:24:49.837Z,1104
2018-07-01T10:25:49.815Z,1103
2018-07-01T10:26:49.863Z,1098
2018-07-01T10:27:49.867Z,1101
2018-07-01T10:28:49.935Z,1102
2018-07-01T10:29:49.817Z,1105
2018-07-01T10:30:49.876Z,1111
2018-07-01T10:31:49.921Z,1110
2018-07-01T10:32:49.838Z,1104
2018-07-01T10:33:49.821Z,1105
2018-07-01T10:34:49.881Z,1107
2018-07-01T10:35:49.826Z,1109
2018-07-01T10:36:49.849Z,1110
2018-07-01T10:37:49.838Z,1110
2018-07-01T10:38:49.810Z,1107
2018-07-01T10:39:49.917Z,1098
2018-07-01T10:40:49.905Z,1102
2018-07-01T10:41:49.914Z,1106
2018-07-01T10:42:49.912Z,1107
2018-07-01T10:43:49.847Z,1107
2018-07-01T10:44:49.908Z,1105
2018-07-01T10:45:49.868Z,1103
2018-07-01T10:46:49.904Z,1110
2018-07-01T10:47:49.895Z,1111
2018-07-01T10:48:49.914Z,1109
2018-07-01T10:49:49.799Z,1112
2018-07-01T10:50:49.900Z,1102
2018-07-01T10:51:49.785Z,1105
2018-07-01T10:52:49.820Z,1112
2018-07-01T10:53:49.832Z,1114
2018-07-01T10:54:49.831Z,1114
2018-07-01T10:55:49.896Z,1114
2018-07-01T10:56:49.899Z,1115
2018-07-01T10:57:49.942Z,1109
2018-07-01T10:58:49.960Z,1112
2018-07-01T10:59:49.944Z,1113
2018-07-01T11:00:49.962Z,1115
2018-07-01T11:01:49.947Z,1120
2018-07-01T11:02:49.840Z,1120
2018-07-01T11:03:49.944Z,1120
2018-07-01T11:04:49.941Z,1122
2018-07-01T11:05:49.872Z,1119
2018-07-01T11:06:49.928Z,1118
2018-07-01T11:07:49.924Z,1115
2018-07-01T11:08:49.858Z,1114
2018-07-01T11:09:49.923Z,1106
2018-07-01T11:10:49.823Z,1113
2018-07-01T11:11:49.976Z,1124
2018-07-01T11:12:49.928Z,1125
2018-07-01T11:13:49.858Z,1130
2018-07-01T11:14:49.925Z,1131
2018-07-01T11:15:49.891Z,1130
2018-07-01T11:16:49.863Z,1128
2018-07-01T11:17:49.933Z,1127
2018-07-01T11:18:49.862Z,1132
2018-07-01T11:19:49.931Z,1130
2018-07-01T11:20:49.866Z,1123
2018-07-01T11:21:49.937Z,1120
2018-07-01T11:22:49.932Z,1121
2018-07-01T11:23:49.898Z,1116
2018-07-01T11:24:49.933Z,1120
2018-07-01T11:25:49.867Z,1131
2018-07-01T11:26:50.086Z,1131
2018-07-01T11:27:49.908Z,1127
2018-07-01T11:28:49.979Z,1126
2018-07-01T11:29:49.936Z,1131
2018-07-01T11:30:49.855Z,1135
2018-07-01T11:31:49.969Z,1137
2018-07-01T11:32:49.962Z,1137
2018-07-01T11:33:49.863Z,1132
2018-07-01T11:34:49.904Z,1124
2018-07-01T11:35:49.868Z,1125
2018-07-01T11:36:49.948Z,1125
2018-07-01T11:37:49.876Z,1124
2018-07-01T11:38:49.944Z,1125
2018-07-01T11:39:49.879Z,1124
2018-07-01T11:40:49.879Z,1121
2018-07-01T11:41:49.946Z,1109
2018-07-01T11:42:49.882Z,1113
2018-07-01T11:43:49.883Z,1108
2018-07-01T11:44:49.880Z,1103
2018-07-01T11:45:49.949Z,1102
2018-07-01T11:46:49.854Z,1104
2018-07-01T11:47:49.906Z,1098
2018-07-01T11:48:49.870Z,1110
2018-07-01T11:49:49.951Z,1112
2018-07-01T11:50:49.879Z,1115
2018-07-01T11:51:49.921Z,1116
2018-07-01T11:52:49.921Z,1117
2018-07-01T11:53:49.982Z,1122
2018-07-01T11:54:49.935Z,1119
2018-07-01T11:55:49.929Z,1117
2018-07-01T11:56:49.876Z,1121
2018-07-01T11:57:49.846Z,1122
2018-07-01T11:58:49.850Z,1125
2018-07-01T11:59:49.943Z,1124
2018-07-01T12:00:49.878Z,1118
2018-07-01T12:01:49.947Z,1117
2018-07-01T12:02:49.917Z,1121
2018-07-01T12:03:49.848Z,1116
2018-07-01T12:05:02.955Z,1114
2018-07-01T12:05:49.940Z,1110
2018-07-01T12:06:49.992Z,1105
2018-07-01T12:07:49.866Z,1101
2018-07-01T12:08:49.997Z,1102
2018-07-01T12:09:49.959Z,1103
2018-07-01T12:10:49.929Z,1103
2018-07-01T12:11:49.981Z,1096
2018-07-01T12:12:49.964Z,1085
2018-07-01T12:13:49.932Z,1093
2018-07-01T12:14:49.947Z,1090
2018-07-01T12:15:49.986Z,1087
2018-07-01T12:16:49.996Z,1086
2018-07-01T12:17:49.941Z,1077
2018-07-01T12:18:50.000Z,1079
2018-07-01T12:19:49.932Z,1086
2018-07-01T12:20:50.013Z,1089
2018-07-01T12:21:50.003Z,1090
2018-07-01T12:22:49.972Z,1093
2018-07-01T12:23:50.000Z,1089
2018-07-01T12:24:49.943Z,1080
2018-07-01T12:25:50.000Z,1085
2018-07-01T12:26:49.975Z,1091
2018-07-01T12:27:49.895Z,1089
2018-07-01T12:28:50.046Z,1089
2018-07-01T12:29:50.007Z,1084
2018-07-01T12:30:49.960Z,1085
2018-07-01T12:31:49.978Z,1083
2018-07-01T12:32:49.891Z,1082
2018-07-01T12:33:50.029Z,1082
2018-07-01T12:34:49.901Z,1083
2018-07-01T12:35:49.992Z,1083
2018-07-01T12:36:49.980Z,1080
2018-07-01T12:37:50.008Z,1065
2018-07-01T12:38:49.983Z,1081
2018-07-01T12:39:50.009Z,1078
2018-07-01T12:40:49.944Z,1078
2018-07-01T12:41:49.951Z,1075
2018-07-01T12:42:49.949Z,1071
2018-07-01T12:43:49.906Z,1073
2018-07-01T12:44:50.005Z,1066
2018-07-01T12:45:49.944Z,1067
2018-07-01T12:46:49.928Z,1070
2018-07-01T12:47:50.017Z,1065
2018-07-01T12:48:50.016Z,1061
2018-07-01T12:49:49.949Z,1062
2018-07-01T12:50:49.933Z,1060
2018-07-01T12:51:49.895Z,1061
2018-07-01T12:52:50.018Z,1064
2018-07-01T12:53:49.969Z,1064
2018-07-01T12:54:49.995Z,1067
2018-07-01T12:55:49.963Z,1068
2018-07-01T12:56:49.988Z,1065
2018-07-01T12:57:49.901Z,1061
2018-07-01T12:58:49.904Z,1062
2018-07-01T12:59:49.866Z,1062
2018-07-01T13:00:49.942Z,1058
2018-07-01T13:01:49.901Z,1055
2018-07-01T13:02:49.868Z,1050
2018-07-01T13:03:49.892Z,1054
2018-07-01T13:04:49.870Z,1042
2018-07-01T13:05:49.998Z,1045
2018-07-01T13:06:49.977Z,1041
2018-07-01T13:07:50.012Z,1036
2018-07-01T13:08:50.005Z,1020
2018-07-01T13:09:49.927Z,1028
2018-07-01T13:10:49.913Z,1028
2018-07-01T13:11:50.039Z,1027
2018-07-01T13:12:49.975Z,1027
2018-07-01T13:13:49.980Z,1026
2018-07-01T13:14:50.024Z,1029
2018-07-01T13:15:49.990Z,1035
2018-07-01T13:16:50.047Z,1036
2018-07-01T13:17:50.009Z,1037
2018-07-01T13:18:49.912Z,1034
2018-07-01T13:19:50.014Z,1024
2018-07-01T13:20:49.994Z,1018
2018-07-01T13:21:50.012Z,1024
2018-07-01T13:22:49.954Z,1020
2018-07-01T13:23:50.033Z,1020
2018-07-01T13:24:49.986Z,1025
2018-07-01T13:25:49.993Z,1022
2018-07-01T13:26:49.993Z,1018
2018-07-01T13:27:49.983Z,1018
2018-07-01T13:28:49.923Z,1016
2018-07-01T13:29:50.048Z,1013
2018-07-01T13:30:50.048Z,1013
2018-07-01T13:31:50.018Z,1011
2018-07-01T13:32:49.940Z,1001
2018-07-01T13:33:49.981Z,1006
2018-07-01T13:34:50.022Z,1004
2018-07-01T13:35:49.979Z,1002
2018-07-01T13:36:50.013Z,1000
2018-07-01T13:37:50.015Z,996
2018-07-01T13:38:50.015Z,984
2018-07-01T13:39:50.015Z,993
2018-07-01T13:40:49.968Z,993
2018-07-01T13:41:50.015Z,992
2018-07-01T13:42:50.038Z,991
2018-07-01T13:43:49.933Z,988
2018-07-01T13:44:49.950Z,978
2018-07-01T13:45:49.964Z,977
2018-07-01T13:46:49.991Z,980
2018-07-01T13:47:50.037Z,978
2018-07-01T13:48:49.937Z,975
2018-07-01T13:49:50.073Z,972
2018-07-01T13:50:50.071Z,964
2018-07-01T13:51:50.032Z,970
2018-07-01T13:52:50.034Z,969
2018-07-01T13:53:49.956Z,973
2018-07-01T13:54:49.978Z,971
2018-07-01T13:55:50.038Z,970
2018-07-01T13:56:50.066Z,965
2018-07-01T13:57:49.994Z,956
2018-07-01T13:58:50.117Z,958